sensor_id;sensor_type;location;lat;lon;timestamp;P1;durP1;ratioP1;P2;durP2;ratioP2
43606;SDS011;29197;44.788;10.366;2022-08-01T00:00:21;1.65;;;1.15;;
43606;SDS011;29197;44.788;10.366;2022-08-01T00:03:12;2.30;;;1.10;;
43606;SDS011;29197;44.788;10.366;2022-08-01T00:06:02;2.33;;;1.50;;
43606;SDS011;29197;44.788;10.366;2022-08-01T00:08:51;1.38;;;1.08;;
43606;SDS011;29197;44.788;10.366;2022-08-01T00:11:40;1.20;;;1.10;;
43606;SDS011;29197;44.788;10.366;2022-08-01T00:14:30;1.25;;;1.10;;
43606;SDS011;29197;44.788;10.366;2022-08-01T00:17:19;1.30;;;1.20;;
43606;SDS011;29197;44.788;10.366;2022-08-01T00:20:11;1.65;;;1.25;;
43606;SDS011;29197;44.788;10.366;2022-08-01T00:23:12;1.85;;;1.40;;
43606;SDS011;29197;44.788;10.366;2022-08-01T00:26:02;2.38;;;1.30;;
43606;SDS011;29197;44.788;10.366;2022-08-01T00:28:51;2.55;;;1.40;;
43606;SDS011;29197;44.788;10.366;2022-08-01T00:31:40;1.20;;;1.10;;
43606;SDS011;29197;44.788;10.366;2022-08-01T00:34:29;1.75;;;1.17;;
43606;SDS011;29197;44.788;10.366;2022-08-01T00:37:20;1.52;;;1.40;;
43606;SDS011;29197;44.788;10.366;2022-08-01T00:40:09;1.10;;;0.90;;
43606;SDS011;29197;44.788;10.366;2022-08-01T00:42:59;1.98;;;1.20;;
43606;SDS011;29197;44.788;10.366;2022-08-01T00:45:48;1.40;;;1.30;;
43606;SDS011;29197;44.788;10.366;2022-08-01T00:48:37;1.60;;;1.33;;
43606;SDS011;29197;44.788;10.366;2022-08-01T00:51:27;1.65;;;1.30;;
43606;SDS011;29197;44.788;10.366;2022-08-01T00:54:18;1.67;;;1.30;;
43606;SDS011;29197;44.788;10.366;2022-08-01T00:57:07;1.95;;;1.50;;
43606;SDS011;29197;44.788;10.366;2022-08-01T00:59:56;1.80;;;1.50;;
43606;SDS011;29197;44.788;10.366;2022-08-01T01:02:46;1.83;;;1.67;;
43606;SDS011;29197;44.788;10.366;2022-08-01T01:05:36;4.05;;;1.50;;
43606;SDS011;29197;44.788;10.366;2022-08-01T01:08:34;4.82;;;1.65;;
43606;SDS011;29197;44.788;10.366;2022-08-01T01:11:28;1.50;;;1.40;;
43606;SDS011;29197;44.788;10.366;2022-08-01T01:14:26;1.38;;;1.27;;
43606;SDS011;29197;44.788;10.366;2022-08-01T01:17:19;2.28;;;1.30;;
43606;SDS011;29197;44.788;10.366;2022-08-01T01:20:37;3.25;;;1.63;;
43606;SDS011;29197;44.788;10.366;2022-08-01T01:23:34;1.45;;;1.35;;
43606;SDS011;29197;44.788;10.366;2022-08-01T01:26:36;2.17;;;1.50;;
43606;SDS011;29197;44.788;10.366;2022-08-01T01:29:34;1.35;;;1.15;;
43606;SDS011;29197;44.788;10.366;2022-08-01T01:32:47;1.55;;;1.45;;
43606;SDS011;29197;44.788;10.366;2022-08-01T01:35:38;2.00;;;1.35;;
43606;SDS011;29197;44.788;10.366;2022-08-01T01:38:33;3.60;;;1.75;;
43606;SDS011;29197;44.788;10.366;2022-08-01T01:41:29;1.90;;;1.15;;
43606;SDS011;29197;44.788;10.366;2022-08-01T01:44:20;2.65;;;1.38;;
43606;SDS011;29197;44.788;10.366;2022-08-01T01:47:11;2.35;;;1.50;;
43606;SDS011;29197;44.788;10.366;2022-08-01T01:50:02;2.58;;;1.30;;
43606;SDS011;29197;44.788;10.366;2022-08-01T01:52:51;1.40;;;1.23;;
43606;SDS011;29197;44.788;10.366;2022-08-01T01:55:41;1.67;;;1.30;;
43606;SDS011;29197;44.788;10.366;2022-08-01T01:58:35;2.20;;;1.25;;
43606;SDS011;29197;44.788;10.366;2022-08-01T02:01:27;1.95;;;1.00;;
43606;SDS011;29197;44.788;10.366;2022-08-01T02:04:40;1.30;;;1.20;;
43606;SDS011;29197;44.788;10.366;2022-08-01T02:07:30;1.42;;;1.33;;
43606;SDS011;29197;44.788;10.366;2022-08-01T02:10:21;1.40;;;1.30;;
43606;SDS011;29197;44.788;10.366;2022-08-01T02:13:14;1.35;;;1.25;;
43606;SDS011;29197;44.788;10.366;2022-08-01T02:16:07;1.40;;;1.20;;
43606;SDS011;29197;44.788;10.366;2022-08-01T02:19:01;2.92;;;1.30;;
43606;SDS011;29197;44.788;10.366;2022-08-01T02:21:55;2.97;;;1.63;;
43606;SDS011;29197;44.788;10.366;2022-08-01T02:24:49;1.55;;;1.27;;
43606;SDS011;29197;44.788;10.366;2022-08-01T02:27:41;1.83;;;1.27;;
43606;SDS011;29197;44.788;10.366;2022-08-01T02:30:41;3.88;;;1.50;;
43606;SDS011;29197;44.788;10.366;2022-08-01T02:33:36;2.88;;;1.10;;
43606;SDS011;29197;44.788;10.366;2022-08-01T02:36:26;1.55;;;1.20;;
43606;SDS011;29197;44.788;10.366;2022-08-01T02:39:21;1.60;;;1.50;;
43606;SDS011;29197;44.788;10.366;2022-08-01T02:42:12;2.05;;;1.50;;
43606;SDS011;29197;44.788;10.366;2022-08-01T02:45:03;1.48;;;1.20;;
43606;SDS011;29197;44.788;10.366;2022-08-01T02:47:56;1.38;;;1.20;;
43606;SDS011;29197;44.788;10.366;2022-08-01T02:50:48;1.55;;;1.30;;
43606;SDS011;29197;44.788;10.366;2022-08-01T02:53:39;2.42;;;1.45;;
43606;SDS011;29197;44.788;10.366;2022-08-01T02:56:33;3.80;;;1.15;;
43606;SDS011;29197;44.788;10.366;2022-08-01T02:59:24;1.25;;;1.15;;
43606;SDS011;29197;44.788;10.366;2022-08-01T03:02:15;1.90;;;1.17;;
43606;SDS011;29197;44.788;10.366;2022-08-01T03:05:06;1.33;;;1.10;;
43606;SDS011;29197;44.788;10.366;2022-08-01T03:07:57;2.35;;;1.20;;
43606;SDS011;29197;44.788;10.366;2022-08-01T03:10:49;1.30;;;1.20;;
43606;SDS011;29197;44.788;10.366;2022-08-01T03:13:41;1.77;;;1.20;;
43606;SDS011;29197;44.788;10.366;2022-08-01T03:16:35;3.33;;;1.30;;
43606;SDS011;29197;44.788;10.366;2022-08-01T03:19:26;1.10;;;1.02;;
43606;SDS011;29197;44.788;10.366;2022-08-01T03:22:18;2.03;;;1.27;;
43606;SDS011;29197;44.788;10.366;2022-08-01T03:25:11;1.55;;;1.20;;
43606;SDS011;29197;44.788;10.366;2022-08-01T03:28:02;2.88;;;1.70;;
43606;SDS011;29197;44.788;10.366;2022-08-01T03:30:54;2.55;;;1.27;;
43606;SDS011;29197;44.788;10.366;2022-08-01T03:33:44;2.60;;;1.23;;
43606;SDS011;29197;44.788;10.366;2022-08-01T03:36:33;1.98;;;1.08;;
43606;SDS011;29197;44.788;10.366;2022-08-01T03:39:30;1.58;;;1.23;;
43606;SDS011;29197;44.788;10.366;2022-08-01T03:42:23;1.08;;;0.98;;
43606;SDS011;29197;44.788;10.366;2022-08-01T03:45:19;2.28;;;1.48;;
43606;SDS011;29197;44.788;10.366;2022-08-01T03:48:12;1.58;;;1.33;;
43606;SDS011;29197;44.788;10.366;2022-08-01T03:51:04;1.48;;;1.38;;
43606;SDS011;29197;44.788;10.366;2022-08-01T03:53:56;2.05;;;1.17;;
43606;SDS011;29197;44.788;10.366;2022-08-01T03:56:47;1.20;;;1.02;;
43606;SDS011;29197;44.788;10.366;2022-08-01T03:59:38;1.70;;;1.45;;
43606;SDS011;29197;44.788;10.366;2022-08-01T04:02:29;3.53;;;1.58;;
43606;SDS011;29197;44.788;10.366;2022-08-01T04:05:20;1.98;;;1.05;;
43606;SDS011;29197;44.788;10.366;2022-08-01T04:08:10;1.60;;;1.45;;
43606;SDS011;29197;44.788;10.366;2022-08-01T04:11:01;1.25;;;1.17;;
43606;SDS011;29197;44.788;10.366;2022-08-01T04:13:50;1.92;;;1.38;;
43606;SDS011;29197;44.788;10.366;2022-08-01T04:16:41;1.27;;;1.13;;
43606;SDS011;29197;44.788;10.366;2022-08-01T04:19:31;2.08;;;1.20;;
43606;SDS011;29197;44.788;10.366;2022-08-01T04:22:22;1.65;;;1.17;;
43606;SDS011;29197;44.788;10.366;2022-08-01T04:25:12;1.77;;;1.35;;
43606;SDS011;29197;44.788;10.366;2022-08-01T04:28:07;2.72;;;1.40;;
43606;SDS011;29197;44.788;10.366;2022-08-01T04:31:04;1.75;;;1.10;;
43606;SDS011;29197;44.788;10.366;2022-08-01T04:33:58;2.40;;;1.80;;
43606;SDS011;29197;44.788;10.366;2022-08-01T04:36:50;2.30;;;1.30;;
43606;SDS011;29197;44.788;10.366;2022-08-01T04:39:42;1.75;;;1.30;;
43606;SDS011;29197;44.788;10.366;2022-08-01T04:42:37;3.53;;;1.63;;
43606;SDS011;29197;44.788;10.366;2022-08-01T04:45:27;1.95;;;1.20;;
43606;SDS011;29197;44.788;10.366;2022-08-01T04:48:17;1.67;;;1.33;;
43606;SDS011;29197;44.788;10.366;2022-08-01T04:51:11;3.60;;;1.60;;
43606;SDS011;29197;44.788;10.366;2022-08-01T04:54:02;3.08;;;1.67;;
43606;SDS011;29197;44.788;10.366;2022-08-01T04:56:56;2.35;;;1.70;;
43606;SDS011;29197;44.788;10.366;2022-08-01T04:59:46;3.47;;;1.67;;
43606;SDS011;29197;44.788;10.366;2022-08-01T05:02:38;4.32;;;1.52;;
43606;SDS011;29197;44.788;10.366;2022-08-01T05:05:28;1.52;;;1.30;;
43606;SDS011;29197;44.788;10.366;2022-08-01T05:08:18;1.20;;;1.10;;
43606;SDS011;29197;44.788;10.366;2022-08-01T05:11:08;1.42;;;1.33;;
43606;SDS011;29197;44.788;10.366;2022-08-01T05:14:00;1.58;;;1.33;;
43606;SDS011;29197;44.788;10.366;2022-08-01T05:16:49;2.20;;;1.00;;
43606;SDS011;29197;44.788;10.366;2022-08-01T05:19:38;1.40;;;1.30;;
43606;SDS011;29197;44.788;10.366;2022-08-01T05:22:29;2.72;;;1.27;;
43606;SDS011;29197;44.788;10.366;2022-08-01T05:25:18;1.50;;;1.40;;
43606;SDS011;29197;44.788;10.366;2022-08-01T05:28:27;1.45;;;1.35;;
43606;SDS011;29197;44.788;10.366;2022-08-01T05:31:18;5.40;;;1.27;;
43606;SDS011;29197;44.788;10.366;2022-08-01T05:34:08;1.40;;;1.17;;
43606;SDS011;29197;44.788;10.366;2022-08-01T05:37:01;2.38;;;1.63;;
43606;SDS011;29197;44.788;10.366;2022-08-01T05:39:50;2.72;;;1.60;;
43606;SDS011;29197;44.788;10.366;2022-08-01T05:42:39;1.30;;;1.20;;
43606;SDS011;29197;44.788;10.366;2022-08-01T05:45:29;1.38;;;1.20;;
43606;SDS011;29197;44.788;10.366;2022-08-01T05:48:19;1.95;;;1.25;;
43606;SDS011;29197;44.788;10.366;2022-08-01T05:51:09;2.35;;;1.30;;
43606;SDS011;29197;44.788;10.366;2022-08-01T05:53:59;2.75;;;1.67;;
43606;SDS011;29197;44.788;10.366;2022-08-01T05:56:49;2.70;;;1.35;;
43606;SDS011;29197;44.788;10.366;2022-08-01T05:59:41;1.35;;;1.25;;
43606;SDS011;29197;44.788;10.366;2022-08-01T06:02:29;2.03;;;1.40;;
43606;SDS011;29197;44.788;10.366;2022-08-01T06:05:20;3.38;;;1.60;;
43606;SDS011;29197;44.788;10.366;2022-08-01T06:08:09;1.70;;;1.20;;
43606;SDS011;29197;44.788;10.366;2022-08-01T06:10:58;2.60;;;1.15;;
43606;SDS011;29197;44.788;10.366;2022-08-01T06:13:47;2.97;;;1.13;;
43606;SDS011;29197;44.788;10.366;2022-08-01T06:16:37;2.97;;;1.17;;
43606;SDS011;29197;44.788;10.366;2022-08-01T06:19:26;2.05;;;1.08;;
43606;SDS011;29197;44.788;10.366;2022-08-01T06:22:17;5.80;;;1.23;;
43606;SDS011;29197;44.788;10.366;2022-08-01T06:25:08;4.20;;;1.17;;
43606;SDS011;29197;44.788;10.366;2022-08-01T06:27:57;1.77;;;1.00;;
43606;SDS011;29197;44.788;10.366;2022-08-01T06:30:46;1.70;;;1.55;;
43606;SDS011;29197;44.788;10.366;2022-08-01T06:33:35;2.63;;;1.15;;
43606;SDS011;29197;44.788;10.366;2022-08-01T06:36:24;1.20;;;1.00;;
43606;SDS011;29197;44.788;10.366;2022-08-01T06:39:15;1.48;;;1.10;;
43606;SDS011;29197;44.788;10.366;2022-08-01T06:42:04;2.63;;;1.00;;
43606;SDS011;29197;44.788;10.366;2022-08-01T06:44:54;2.63;;;1.30;;
43606;SDS011;29197;44.788;10.366;2022-08-01T06:47:44;1.33;;;1.10;;
43606;SDS011;29197;44.788;10.366;2022-08-01T06:50:36;2.70;;;1.50;;
43606;SDS011;29197;44.788;10.366;2022-08-01T06:53:26;1.95;;;1.45;;
43606;SDS011;29197;44.788;10.366;2022-08-01T06:56:21;2.22;;;1.35;;
43606;SDS011;29197;44.788;10.366;2022-08-01T06:59:11;3.58;;;1.33;;
43606;SDS011;29197;44.788;10.366;2022-08-01T07:02:00;1.63;;;1.10;;
43606;SDS011;29197;44.788;10.366;2022-08-01T07:04:50;1.60;;;1.27;;
43606;SDS011;29197;44.788;10.366;2022-08-01T07:07:38;1.55;;;1.15;;
43606;SDS011;29197;44.788;10.366;2022-08-01T07:10:27;2.72;;;2.20;;
43606;SDS011;29197;44.788;10.366;2022-08-01T07:13:18;1.67;;;1.15;;
43606;SDS011;29197;44.788;10.366;2022-08-01T07:16:30;1.90;;;1.30;;
43606;SDS011;29197;44.788;10.366;2022-08-01T07:19:19;3.28;;;1.30;;
43606;SDS011;29197;44.788;10.366;2022-08-01T07:22:24;2.22;;;1.50;;
43606;SDS011;29197;44.788;10.366;2022-08-01T07:25:13;3.17;;;1.50;;
43606;SDS011;29197;44.788;10.366;2022-08-01T07:28:03;4.55;;;1.40;;
43606;SDS011;29197;44.788;10.366;2022-08-01T07:30:54;2.60;;;1.50;;
43606;SDS011;29197;44.788;10.366;2022-08-01T07:33:43;3.22;;;1.80;;
43606;SDS011;29197;44.788;10.366;2022-08-01T07:36:35;3.08;;;1.55;;
43606;SDS011;29197;44.788;10.366;2022-08-01T07:39:24;3.50;;;1.67;;
43606;SDS011;29197;44.788;10.366;2022-08-01T07:42:14;4.85;;;1.90;;
43606;SDS011;29197;44.788;10.366;2022-08-01T07:45:03;3.00;;;1.70;;
43606;SDS011;29197;44.788;10.366;2022-08-01T07:47:54;2.83;;;1.33;;
43606;SDS011;29197;44.788;10.366;2022-08-01T07:50:43;2.67;;;1.88;;
43606;SDS011;29197;44.788;10.366;2022-08-01T07:53:32;2.60;;;1.88;;
43606;SDS011;29197;44.788;10.366;2022-08-01T07:56:21;2.72;;;1.77;;
43606;SDS011;29197;44.788;10.366;2022-08-01T07:59:12;5.28;;;1.50;;
43606;SDS011;29197;44.788;10.366;2022-08-01T08:02:11;3.05;;;1.42;;
43606;SDS011;29197;44.788;10.366;2022-08-01T08:05:02;4.50;;;1.70;;
43606;SDS011;29197;44.788;10.366;2022-08-01T08:07:53;1.73;;;1.50;;
43606;SDS011;29197;44.788;10.366;2022-08-01T08:10:42;5.65;;;1.80;;
43606;SDS011;29197;44.788;10.366;2022-08-01T08:13:32;11.25;;;2.33;;
43606;SDS011;29197;44.788;10.366;2022-08-01T08:16:21;4.75;;;2.05;;
43606;SDS011;29197;44.788;10.366;2022-08-01T08:19:10;3.70;;;1.77;;
43606;SDS011;29197;44.788;10.366;2022-08-01T08:22:01;6.22;;;2.05;;
43606;SDS011;29197;44.788;10.366;2022-08-01T08:24:51;2.70;;;1.67;;
43606;SDS011;29197;44.788;10.366;2022-08-01T08:27:46;3.38;;;1.83;;
43606;SDS011;29197;44.788;10.366;2022-08-01T08:30:35;6.13;;;2.00;;
43606;SDS011;29197;44.788;10.366;2022-08-01T08:33:24;3.08;;;1.70;;
43606;SDS011;29197;44.788;10.366;2022-08-01T08:36:14;2.75;;;1.60;;
43606;SDS011;29197;44.788;10.366;2022-08-01T08:39:04;5.80;;;1.70;;
43606;SDS011;29197;44.788;10.366;2022-08-01T08:41:54;2.88;;;1.90;;
43606;SDS011;29197;44.788;10.366;2022-08-01T08:44:44;4.10;;;1.80;;
43606;SDS011;29197;44.788;10.366;2022-08-01T08:47:33;1.75;;;1.40;;
43606;SDS011;29197;44.788;10.366;2022-08-01T08:50:24;3.25;;;1.80;;
43606;SDS011;29197;44.788;10.366;2022-08-01T08:53:14;3.33;;;1.50;;
43606;SDS011;29197;44.788;10.366;2022-08-01T08:56:06;2.47;;;1.60;;
43606;SDS011;29197;44.788;10.366;2022-08-01T08:58:56;2.85;;;1.70;;
43606;SDS011;29197;44.788;10.366;2022-08-01T09:01:46;4.90;;;2.33;;
43606;SDS011;29197;44.788;10.366;2022-08-01T09:04:35;3.75;;;1.80;;
43606;SDS011;29197;44.788;10.366;2022-08-01T09:07:27;5.80;;;1.73;;
43606;SDS011;29197;44.788;10.366;2022-08-01T09:10:16;2.75;;;1.63;;
43606;SDS011;29197;44.788;10.366;2022-08-01T09:13:09;7.35;;;2.15;;
43606;SDS011;29197;44.788;10.366;2022-08-01T09:15:59;1.83;;;1.60;;
43606;SDS011;29197;44.788;10.366;2022-08-01T09:18:49;1.85;;;1.60;;
43606;SDS011;29197;44.788;10.366;2022-08-01T09:21:39;2.92;;;1.92;;
43606;SDS011;29197;44.788;10.366;2022-08-01T09:24:56;2.67;;;1.70;;
43606;SDS011;29197;44.788;10.366;2022-08-01T09:27:45;2.80;;;1.70;;
43606;SDS011;29197;44.788;10.366;2022-08-01T09:30:39;2.05;;;1.77;;
43606;SDS011;29197;44.788;10.366;2022-08-01T09:33:31;3.60;;;2.30;;
43606;SDS011;29197;44.788;10.366;2022-08-01T09:37:18;3.53;;;1.70;;
43606;SDS011;29197;44.788;10.366;2022-08-01T09:39:59;2.63;;;1.60;;
43606;SDS011;29197;44.788;10.366;2022-08-01T09:42:48;3.22;;;1.65;;
43606;SDS011;29197;44.788;10.366;2022-08-01T09:45:40;3.92;;;1.40;;
43606;SDS011;29197;44.788;10.366;2022-08-01T09:48:36;5.25;;;1.70;;
43606;SDS011;29197;44.788;10.366;2022-08-01T09:51:27;3.35;;;1.65;;
43606;SDS011;29197;44.788;10.366;2022-08-01T09:54:37;5.97;;;2.38;;
43606;SDS011;29197;44.788;10.366;2022-08-01T09:57:29;7.18;;;2.58;;
43606;SDS011;29197;44.788;10.366;2022-08-01T10:00:18;2.42;;;1.50;;
43606;SDS011;29197;44.788;10.366;2022-08-01T10:03:29;2.80;;;1.63;;
43606;SDS011;29197;44.788;10.366;2022-08-01T10:06:20;5.85;;;1.75;;
43606;SDS011;29197;44.788;10.366;2022-08-01T10:09:10;3.47;;;1.98;;
43606;SDS011;29197;44.788;10.366;2022-08-01T10:12:01;2.00;;;1.73;;
43606;SDS011;29197;44.788;10.366;2022-08-01T10:14:54;3.35;;;2.30;;
43606;SDS011;29197;44.788;10.366;2022-08-01T10:17:47;5.10;;;1.60;;
43606;SDS011;29197;44.788;10.366;2022-08-01T10:20:44;4.10;;;1.55;;
43606;SDS011;29197;44.788;10.366;2022-08-01T10:23:36;3.40;;;1.38;;
43606;SDS011;29197;44.788;10.366;2022-08-01T10:26:27;1.30;;;1.20;;
43606;SDS011;29197;44.788;10.366;2022-08-01T10:29:20;2.17;;;1.65;;
43606;SDS011;29197;44.788;10.366;2022-08-01T10:32:37;3.85;;;1.42;;
43606;SDS011;29197;44.788;10.366;2022-08-01T10:35:26;2.22;;;1.45;;
43606;SDS011;29197;44.788;10.366;2022-08-01T10:38:35;1.85;;;1.35;;
43606;SDS011;29197;44.788;10.366;2022-08-01T10:41:24;1.50;;;1.10;;
43606;SDS011;29197;44.788;10.366;2022-08-01T10:44:14;1.65;;;1.55;;
43606;SDS011;29197;44.788;10.366;2022-08-01T10:47:05;4.43;;;1.65;;
43606;SDS011;29197;44.788;10.366;2022-08-01T10:49:58;1.60;;;1.20;;
43606;SDS011;29197;44.788;10.366;2022-08-01T10:56:39;2.15;;;1.02;;
43606;SDS011;29197;44.788;10.366;2022-08-01T10:59:32;1.65;;;1.30;;
43606;SDS011;29197;44.788;10.366;2022-08-01T11:02:56;1.63;;;1.30;;
43606;SDS011;29197;44.788;10.366;2022-08-01T11:05:47;2.75;;;1.50;;
43606;SDS011;29197;44.788;10.366;2022-08-01T11:08:41;3.10;;;1.70;;
43606;SDS011;29197;44.788;10.366;2022-08-01T11:24:55;1.50;;;1.40;;
43606;SDS011;29197;44.788;10.366;2022-08-01T11:27:48;1.48;;;1.30;;
43606;SDS011;29197;44.788;10.366;2022-08-01T11:31:28;2.03;;;1.10;;
43606;SDS011;29197;44.788;10.366;2022-08-01T11:37:44;1.48;;;1.33;;
43606;SDS011;29197;44.788;10.366;2022-08-01T11:40:34;1.27;;;1.17;;
43606;SDS011;29197;44.788;10.366;2022-08-01T11:43:25;1.55;;;1.02;;
43606;SDS011;29197;44.788;10.366;2022-08-01T11:46:18;1.50;;;1.38;;
43606;SDS011;29197;44.788;10.366;2022-08-01T11:49:25;1.63;;;1.05;;
43606;SDS011;29197;44.788;10.366;2022-08-01T11:52:27;1.88;;;1.42;;
43606;SDS011;29197;44.788;10.366;2022-08-01T11:55:20;5.28;;;1.23;;
43606;SDS011;29197;44.788;10.366;2022-08-01T11:58:20;2.10;;;1.23;;
43606;SDS011;29197;44.788;10.366;2022-08-01T12:01:17;1.63;;;1.17;;
43606;SDS011;29197;44.788;10.366;2022-08-01T12:04:07;2.95;;;1.30;;
43606;SDS011;29197;44.788;10.366;2022-08-01T12:07:11;1.83;;;1.23;;
43606;SDS011;29197;44.788;10.366;2022-08-01T12:10:02;1.35;;;1.10;;
43606;SDS011;29197;44.788;10.366;2022-08-01T12:12:54;1.50;;;0.98;;
43606;SDS011;29197;44.788;10.366;2022-08-01T12:15:48;2.00;;;1.33;;
43606;SDS011;29197;44.788;10.366;2022-08-01T12:18:42;2.03;;;1.50;;
43606;SDS011;29197;44.788;10.366;2022-08-01T12:21:32;2.67;;;1.58;;
43606;SDS011;29197;44.788;10.366;2022-08-01T12:24:21;1.67;;;0.98;;
43606;SDS011;29197;44.788;10.366;2022-08-01T12:27:12;1.40;;;1.10;;
43606;SDS011;29197;44.788;10.366;2022-08-01T12:30:13;3.47;;;1.00;;
43606;SDS011;29197;44.788;10.366;2022-08-01T12:33:04;3.30;;;1.42;;
43606;SDS011;29197;44.788;10.366;2022-08-01T12:35:56;5.22;;;1.27;;
43606;SDS011;29197;44.788;10.366;2022-08-01T12:38:52;1.50;;;1.23;;
43606;SDS011;29197;44.788;10.366;2022-08-01T12:41:42;2.10;;;1.20;;
43606;SDS011;29197;44.788;10.366;2022-08-01T12:44:33;2.25;;;1.08;;
43606;SDS011;29197;44.788;10.366;2022-08-01T12:47:23;2.45;;;1.30;;
43606;SDS011;29197;44.788;10.366;2022-08-01T12:50:13;1.10;;;1.00;;
43606;SDS011;29197;44.788;10.366;2022-08-01T12:53:04;1.08;;;0.95;;
43606;SDS011;29197;44.788;10.366;2022-08-01T12:55:54;1.08;;;0.98;;
43606;SDS011;29197;44.788;10.366;2022-08-01T12:58:45;1.10;;;0.90;;
43606;SDS011;29197;44.788;10.366;2022-08-01T13:01:36;5.15;;;1.30;;
43606;SDS011;29197;44.788;10.366;2022-08-01T13:04:27;1.42;;;1.10;;
43606;SDS011;29197;44.788;10.366;2022-08-01T13:07:16;0.82;;;0.82;;
43606;SDS011;29197;44.788;10.366;2022-08-01T13:10:06;1.27;;;0.98;;
43606;SDS011;29197;44.788;10.366;2022-08-01T13:12:57;3.47;;;1.00;;
43606;SDS011;29197;44.788;10.366;2022-08-01T13:15:46;1.38;;;0.90;;
43606;SDS011;29197;44.788;10.366;2022-08-01T13:18:42;0.85;;;0.80;;
43606;SDS011;29197;44.788;10.366;2022-08-01T13:21:36;1.05;;;0.95;;
43606;SDS011;29197;44.788;10.366;2022-08-01T13:24:40;0.77;;;0.60;;
43606;SDS011;29197;44.788;10.366;2022-08-01T13:27:30;1.60;;;0.90;;
43606;SDS011;29197;44.788;10.366;2022-08-01T13:30:19;1.10;;;1.00;;
43606;SDS011;29197;44.788;10.366;2022-08-01T13:33:09;1.13;;;0.73;;
43606;SDS011;29197;44.788;10.366;2022-08-01T13:36:00;1.85;;;1.00;;
43606;SDS011;29197;44.788;10.366;2022-08-01T13:38:50;1.20;;;0.90;;
43606;SDS011;29197;44.788;10.366;2022-08-01T13:41:56;1.15;;;1.00;;
43606;SDS011;29197;44.788;10.366;2022-08-01T13:45:05;0.90;;;0.90;;
43606;SDS011;29197;44.788;10.366;2022-08-01T13:48:00;3.17;;;1.00;;
43606;SDS011;29197;44.788;10.366;2022-08-01T13:51:06;0.90;;;0.90;;
43606;SDS011;29197;44.788;10.366;2022-08-01T13:54:08;1.45;;;1.20;;
43606;SDS011;29197;44.788;10.366;2022-08-01T13:56:57;0.90;;;0.90;;
43606;SDS011;29197;44.788;10.366;2022-08-01T13:59:46;1.77;;;0.88;;
43606;SDS011;29197;44.788;10.366;2022-08-01T14:02:35;0.73;;;0.60;;
43606;SDS011;29197;44.788;10.366;2022-08-01T14:05:24;1.50;;;1.13;;
43606;SDS011;29197;44.788;10.366;2022-08-01T14:08:16;0.93;;;0.60;;
43606;SDS011;29197;44.788;10.366;2022-08-01T14:11:06;0.80;;;0.80;;
43606;SDS011;29197;44.788;10.366;2022-08-01T14:13:56;1.20;;;1.08;;
43606;SDS011;29197;44.788;10.366;2022-08-01T14:16:45;2.05;;;1.00;;
43606;SDS011;29197;44.788;10.366;2022-08-01T14:19:34;1.42;;;1.05;;
43606;SDS011;29197;44.788;10.366;2022-08-01T14:22:33;1.88;;;1.20;;
43606;SDS011;29197;44.788;10.366;2022-08-01T14:25:24;1.13;;;1.00;;
43606;SDS011;29197;44.788;10.366;2022-08-01T14:28:35;2.15;;;0.82;;
43606;SDS011;29197;44.788;10.366;2022-08-01T14:31:38;1.00;;;0.98;;
43606;SDS011;29197;44.788;10.366;2022-08-01T14:34:27;1.13;;;1.02;;
43606;SDS011;29197;44.788;10.366;2022-08-01T14:37:16;3.95;;;1.15;;
43606;SDS011;29197;44.788;10.366;2022-08-01T14:40:06;0.90;;;0.90;;
43606;SDS011;29197;44.788;10.366;2022-08-01T14:42:57;1.42;;;1.02;;
43606;SDS011;29197;44.788;10.366;2022-08-01T14:45:47;1.52;;;1.10;;
43606;SDS011;29197;44.788;10.366;2022-08-01T14:48:38;1.25;;;1.10;;
43606;SDS011;29197;44.788;10.366;2022-08-01T14:51:37;1.48;;;1.38;;
43606;SDS011;29197;44.788;10.366;2022-08-01T14:54:26;2.15;;;1.05;;
43606;SDS011;29197;44.788;10.366;2022-08-01T14:57:15;1.10;;;1.10;;
43606;SDS011;29197;44.788;10.366;2022-08-01T15:00:08;3.08;;;1.10;;
43606;SDS011;29197;44.788;10.366;2022-08-01T15:02:59;1.45;;;1.17;;
43606;SDS011;29197;44.788;10.366;2022-08-01T15:06:04;0.80;;;0.80;;
43606;SDS011;29197;44.788;10.366;2022-08-01T15:08:56;2.30;;;1.50;;
43606;SDS011;29197;44.788;10.366;2022-08-01T15:11:45;1.30;;;1.20;;
43606;SDS011;29197;44.788;10.366;2022-08-01T15:14:34;1.10;;;1.10;;
43606;SDS011;29197;44.788;10.366;2022-08-01T15:17:37;1.00;;;1.00;;
43606;SDS011;29197;44.788;10.366;2022-08-01T15:20:28;1.95;;;1.00;;
43606;SDS011;29197;44.788;10.366;2022-08-01T15:23:17;1.13;;;0.90;;
43606;SDS011;29197;44.788;10.366;2022-08-01T15:26:05;0.88;;;0.88;;
43606;SDS011;29197;44.788;10.366;2022-08-01T15:29:00;1.48;;;1.15;;
43606;SDS011;29197;44.788;10.366;2022-08-01T15:31:49;1.02;;;0.90;;
43606;SDS011;29197;44.788;10.366;2022-08-01T15:34:39;1.20;;;1.10;;
43606;SDS011;29197;44.788;10.366;2022-08-01T15:37:29;1.13;;;1.02;;
43606;SDS011;29197;44.788;10.366;2022-08-01T15:40:29;1.17;;;1.00;;
43606;SDS011;29197;44.788;10.366;2022-08-01T15:43:21;1.52;;;1.25;;
43606;SDS011;29197;44.788;10.366;2022-08-01T15:46:13;1.55;;;1.02;;
43606;SDS011;29197;44.788;10.366;2022-08-01T15:49:02;3.00;;;1.25;;
43606;SDS011;29197;44.788;10.366;2022-08-01T15:51:53;1.70;;;1.00;;
43606;SDS011;29197;44.788;10.366;2022-08-01T15:54:43;1.02;;;0.80;;
43606;SDS011;29197;44.788;10.366;2022-08-01T15:57:32;1.05;;;0.98;;
43606;SDS011;29197;44.788;10.366;2022-08-01T16:00:21;2.53;;;1.20;;
43606;SDS011;29197;44.788;10.366;2022-08-01T16:03:18;1.00;;;0.80;;
43606;SDS011;29197;44.788;10.366;2022-08-01T16:06:07;1.00;;;1.00;;
43606;SDS011;29197;44.788;10.366;2022-08-01T16:08:58;1.10;;;1.00;;
43606;SDS011;29197;44.788;10.366;2022-08-01T16:11:49;0.90;;;0.90;;
43606;SDS011;29197;44.788;10.366;2022-08-01T16:14:39;1.00;;;0.98;;
43606;SDS011;29197;44.788;10.366;2022-08-01T16:17:28;1.55;;;1.10;;
43606;SDS011;29197;44.788;10.366;2022-08-01T16:20:17;0.93;;;0.90;;
43606;SDS011;29197;44.788;10.366;2022-08-01T16:23:06;3.63;;;1.30;;
43606;SDS011;29197;44.788;10.366;2022-08-01T16:25:57;1.30;;;0.90;;
43606;SDS011;29197;44.788;10.366;2022-08-01T16:28:47;1.65;;;1.13;;
43606;SDS011;29197;44.788;10.366;2022-08-01T16:31:38;0.90;;;0.90;;
43606;SDS011;29197;44.788;10.366;2022-08-01T16:34:47;1.45;;;1.30;;
43606;SDS011;29197;44.788;10.366;2022-08-01T16:37:36;2.05;;;1.08;;
43606;SDS011;29197;44.788;10.366;2022-08-01T16:40:25;1.35;;;1.08;;
43606;SDS011;29197;44.788;10.366;2022-08-01T16:43:17;2.53;;;1.48;;
43606;SDS011;29197;44.788;10.366;2022-08-01T16:46:06;2.95;;;1.50;;
43606;SDS011;29197;44.788;10.366;2022-08-01T16:48:56;2.08;;;0.90;;
43606;SDS011;29197;44.788;10.366;2022-08-01T16:51:46;1.33;;;0.80;;
43606;SDS011;29197;44.788;10.366;2022-08-01T16:54:35;1.35;;;1.10;;
43606;SDS011;29197;44.788;10.366;2022-08-01T16:57:25;0.93;;;0.85;;
43606;SDS011;29197;44.788;10.366;2022-08-01T17:00:17;1.20;;;1.10;;
43606;SDS011;29197;44.788;10.366;2022-08-01T17:03:08;1.25;;;1.10;;
43606;SDS011;29197;44.788;10.366;2022-08-01T17:06:18;2.45;;;1.08;;
43606;SDS011;29197;44.788;10.366;2022-08-01T17:09:08;1.17;;;1.00;;
43606;SDS011;29197;44.788;10.366;2022-08-01T17:11:57;0.95;;;0.80;;
43606;SDS011;29197;44.788;10.366;2022-08-01T18:41:32;1.88;;;1.42;;
43606;SDS011;29197;44.788;10.366;2022-08-01T18:44:22;2.22;;;1.40;;
43606;SDS011;29197;44.788;10.366;2022-08-01T18:47:12;2.67;;;1.50;;
43606;SDS011;29197;44.788;10.366;2022-08-01T18:50:02;2.17;;;1.63;;